Jardin Guanabara Heliport

SIGA · Rio de Janeiro, 巴西

罗盘
风向 的 风向 的 风向 到 风向 150° 直升机
风: 6 kt, 2 beaufort
0 ft 1.000 2.000 3.000 4.000 5.000
Cloud Cloud
FEW 3.000
METAR SBGL 161700Z 15006KT 110V190 9999 FEW030 32/22 Q1014

METAR Jardin Guanabara Heliport - SIGA

Jardin Guanabara Heliport是,巴西中的直升机场。 该机场位于纬度-22,80972和经度-43,21028。 本场的ICAO机场代码为SIGA。 机场在Curitiba FIR中。

该航空气象观测是针对Rio Galeão – Tom Jobim International Airport在2024年4月16日 14:00, 当地时间进行的。

机场观察

风向为150°,速度为6 kt。 风向在110°和190°之间变化。

可见度为10 km 或者更多。

有几云在3.000 ft的高度。 没有观察到天花板。

温度和风寒是32 °C。 热指数为36。 露点为22 °C,相对湿度为55%。 海平面上的气压为1014 hPa (QNH)。

白天

今天,太阳从06:06升起,在17:38降落。 这适用于Jardin Guanabara Heliport,世界夏令时可能有所不同。 当地时间与世界标准时间之间的时差为-3 小时。 夏令时目前正在进行中。

公司介绍

我们没有关于这个机场的公司信息。

体会

到Vliegles.nl去找飞行课程,跳伞和其他飞行体验。 浏览页面,了解Jardin Guanabara Heliport附近所有可用的活动。 你也可以使用搜索功能来寻找你所在地附近的特定飞行课程、跳伞或其他飞行体验。

乌云

3.000 ft FEW 几云

温度 & 天气

温度 32 °C
露点 22 °C
相对湿度 55%
热度指数 36 °C
Kp-index 4 (0-9)

白天

日出
06:06
中午
11:52
日落
17:38 (3:15)

小工具

你想在你的网站上有一个关于Jardin Guanabara Heliport的当前航空天气(METAR)的小部件吗?

显示HTML代码
报告变更